KMYR/MYR METAR and TAF weather

Enter ICAO airport designator
Station Type Date Time Source
KMYR METAR 2019/10/15 20:56 UTC NOAA

KMYR 152056Z 09004KT 10SM CLR 23/16 A3005 RMK AO2 SLP174 T02280161 58015


Station Type Date Time Source
KMYR Decoded METAR 2019/10/15 20:56 UTC NOAA

Myrtle Beach Air Force Base, SC, United States (KMYR) 33-41N 078-56W 8M
Oct 15, 2019 - 04:56 PM EDT / 2019.10.15 2056 UTC
Wind: from the E (090 degrees) at 5 MPH (4 KT):0
Visibility: 10 mile(s):0
Sky conditions: clear
Temperature: 73.0 F (22.8 C)
Dew Point: 61.0 F (16.1 C)
Relative Humidity: 65%
Pressure (altimeter): 30.05 in. Hg (1017 hPa)
Pressure tendency: 0.04 inches (1.5 hPa) lower than three hours ago
ob: KMYR 152056Z 09004KT 10SM CLR 23/16 A3005 RMK AO2 SLP174 T02280161 58015
cycle: 21

Station Type Date Time Source
KMYR TAF 2019/10/15 18:22 UTC NOAA

TAF KMYR 151720Z 1518/1618 11006KT P6SM BKN250
FM160200 14007KT P6SM VCSH BKN100
FM160900 14011G16KT 4SM RA OVC015
FM161400 24012G18KT P6SM -RA OVC015

Example: see airport list